KGRD

Greenwood County Airport

Greenwood, South Carolina, USA
METAR KGRD 231056Z AUTO 00000KT 5SM BR BKN060 21/21 A3011 RMK AO2 SLP190 T02060206
Observed Flight Rules
May-23 @ 10:56 UTC (19 minutes ago) Marginal Visual Flight Rules
Visibility Clouds Conditions
5 miles
  • Broken at 6,000' AGL
  • Mist
Temperatures Readings
Current 21°C / 70°F
Dewpoint 21°C / 70°F
Humidity 100%
Altimeter 30.11" Hg
Pressure 1019 hPa
Elevation 185
METAR KGRD 231056Z AUTO 00000KT 5SM BR BKN060 21/21 A3011 RMK AO2 SLP190 T02060206
Observed Flight Rules
May-23 @ 10:56 UTC
(19 minutes ago)
MVFR
Clouds
  • Broken at 6,000' AGL
Conditions
  • Mist
Temperature Dewpoint
21°C / 70°F 21°C / 70°F
Humidity Altimeter Pressure
100% 30.11" Hg 1019 hPa